Time;durP1;ratioP1;P1;durP2;ratioP2;P2;SDS_P1;SDS_P2;PMS_P1;PMS_P2;Temp;Humidity;BMP_temperature;BMP_pressure;BME280_temperature;BME280_humidity;BME280_pressure;Samples;Min_cycle;Max_cycle;Signal;HPM_P1;HPM_P2
2022/06/22 00:00:13;;;;;;;3.90;3.40;;;;;;;22.16;83.10;99652.16;5004086;28;20719;-74
2022/06/22 00:02:42;;;;;;;5.57;3.70;;;;;;;22.14;82.97;99655.84;5016001;28;20235;-74
2022/06/22 00:05:17;;;;;;;3.67;3.33;;;;;;;22.10;83.10;99659.63;5002744;28;21299;-73
2022/06/22 00:07:51;;;;;;;4.20;3.70;;;;;;;22.05;81.82;99658.19;5003976;28;20655;-75
2022/06/22 00:10:22;;;;;;;5.80;4.17;;;;;;;22.00;80.93;99646.25;5015719;28;20195;-74
2022/06/22 00:12:51;;;;;;;3.80;3.40;;;;;;;21.90;81.48;99631.06;5003146;28;20224;-75
2022/06/22 00:15:22;;;;;;;6.27;3.40;;;;;;;21.87;80.34;99640.97;5019998;28;20188;-76
2022/06/22 00:17:48;;;;;;;4.57;3.80;;;;;;;21.80;79.88;99642.31;5003449;28;20184;-75
2022/06/22 00:20:29;;;;;;;3.93;3.50;;;;;;;21.80;80.28;99647.56;4999821;28;20624;-74
2022/06/22 00:22:58;;;;;;;4.40;3.27;;;;;;;21.76;80.40;99642.53;5002399;28;20228;-75
2022/06/22 00:25:36;;;;;;;5.80;3.60;;;;;;;21.75;80.10;99635.56;5019655;28;20187;-75
2022/06/22 00:28:23;;;;;;;3.37;3.07;;;;;;;21.71;80.80;99643.75;5026022;28;20203;-74
2022/06/22 00:30:48;;;;;;;4.10;3.70;;;;;;;21.69;81.35;99628.06;5002360;28;20679;-75
2022/06/22 00:33:22;;;;;;;3.63;3.33;;;;;;;21.66;81.52;99624.78;5003572;28;20212;-75
2022/06/22 00:36:11;;;;;;;3.60;3.30;;;;;;;21.61;81.80;99610.13;5007518;28;20578;-75
2022/06/22 00:38:36;;;;;;;6.07;3.40;;;;;;;21.58;81.90;99597.13;5007288;28;20188;-75
2022/06/22 00:41:22;;;;;;;3.50;3.20;;;;;;;21.56;81.95;99614.81;5001721;28;20176;-75
2022/06/22 00:43:48;;;;;;;3.53;3.23;;;;;;;21.52;82.65;99615.13;5004357;28;20208;-75
2022/06/22 00:46:18;;;;;;;4.10;3.60;;;;;;;21.48;82.86;99617.13;5003789;28;20186;-75
2022/06/22 00:48:46;;;;;;;4.90;3.53;;;;;;;21.41;83.08;99621.09;5007564;28;20203;-75
2022/06/22 00:51:16;;;;;;;3.53;3.23;;;;;;;21.36;83.45;99615.31;5007559;28;20184;-75
2022/06/22 00:53:57;;;;;;;5.07;4.03;;;;;;;21.30;84.05;99616.53;5009210;28;20348;-75
2022/06/22 00:56:49;;;;;;;5.50;3.63;;;;;;;21.24;83.59;99615.16;5000356;28;20187;-75
2022/06/22 00:59:42;;;;;;;4.47;4.00;;;;;;;21.19;83.26;99619.00;5006547;28;20195;-75
2022/06/22 01:02:35;;;;;;;3.47;3.17;;;;;;;21.19;83.55;99634.78;4998638;28;20266;-75
2022/06/22 01:05:15;;;;;;;2.90;2.70;;;;;;;21.20;83.58;99639.97;5002470;28;20904;-75
2022/06/22 01:08:00;;;;;;;5.50;3.30;;;;;;;21.24;83.13;99624.81;5007782;28;20563;-75
2022/06/22 01:10:35;;;;;;;3.27;2.97;;;;;;;21.23;83.28;99626.63;5000186;28;20723;-75
2022/06/22 01:13:13;;;;;;;4.33;3.30;;;;;;;21.22;82.16;99630.19;5008397;28;20218;-75
2022/06/22 01:16:00;;;;;;;4.20;3.00;;;;;;;21.22;79.68;99635.47;5018217;28;20552;-75
2022/06/22 01:18:34;;;;;;;2.97;2.70;;;;;;;21.14;79.52;99656.13;5002768;28;20219;-75
2022/06/22 01:21:14;;;;;;;5.33;3.00;;;;;;;21.08;78.80;99678.41;5004874;28;20203;-75
2022/06/22 01:24:03;;;;;;;4.60;3.00;;;;;;;21.08;78.14;99703.91;5005056;28;20215;-75
2022/06/22 01:26:50;;;;;;;4.87;3.30;;;;;;;21.02;77.25;99713.00;5003842;28;20186;-75
2022/06/22 01:29:21;;;;;;;3.27;2.97;;;;;;;21.00;77.08;99720.97;5006385;28;20310;-76
2022/06/22 01:32:02;;;;;;;4.37;2.50;;;;;;;20.97;77.83;99712.44;5007298;28;20175;-74
2022/06/22 01:34:38;;;;;;;2.93;2.73;;;;;;;20.97;79.06;99694.03;5002854;28;20279;-75
2022/06/22 01:37:07;;;;;;;5.23;3.03;;;;;;;20.92;80.80;99696.94;5006465;28;20202;-75
2022/06/22 01:39:33;;;;;;;4.63;3.00;;;;;;;20.90;83.01;99682.19;5000453;28;20215;-75
2022/06/22 01:42:04;;;;;;;4.23;3.00;;;;;;;20.83;82.88;99672.06;5007768;28;20256;-75
2022/06/22 01:44:33;;;;;;;4.10;3.00;;;;;;;20.74;83.32;99672.56;5005466;28;20225;-75
2022/06/22 01:47:24;;;;;;;2.90;2.70;;;;;;;20.60;84.21;99662.06;5002575;28;20204;-75
2022/06/22 01:50:06;;;;;;;3.00;2.70;;;;;;;20.51;85.63;99652.94;5002286;28;20177;-75
2022/06/22 01:52:51;;;;;;;3.20;2.80;;;;;;;20.46;87.87;99655.03;5003505;28;20298;-75
2022/06/22 01:55:34;;;;;;;2.83;2.63;;;;;;;20.41;89.09;99656.16;5005152;28;20199;-74
2022/06/22 01:58:04;;;;;;;3.30;3.00;;;;;;;20.34;89.01;99635.59;5004837;28;20194;-74
2022/06/22 02:00:29;;;;;;;2.70;2.50;;;;;;;20.27;89.21;99627.22;5003440;28;20194;-75
2022/06/22 02:03:13;;;;;;;2.73;2.53;;;;;;;20.20;89.14;99616.25;5005112;28;20208;-76
2022/06/22 02:05:45;;;;;;;3.20;2.90;;;;;;;20.05;88.84;99615.34;4993494;28;20545;-75
2022/06/22 02:08:25;;;;;;;3.53;2.90;;;;;;;19.91;88.46;99603.06;5016593;28;20181;-76
2022/06/22 02:10:50;;;;;;;3.13;2.83;;;;;;;19.78;88.08;99597.66;4998164;28;20188;-75
2022/06/22 02:13:28;;;;;;;3.97;2.87;;;;;;;19.69;89.34;99594.72;5014330;28;20211;-75
2022/06/22 02:16:15;;;;;;;3.33;3.00;;;;;;;19.61;89.10;99589.91;5010694;28;20277;-75
2022/06/22 02:19:07;;;;;;;3.20;2.83;;;;;;;19.56;87.55;99577.06;5013503;28;20177;-75
2022/06/22 02:21:38;;;;;;;5.47;3.00;;;;;;;19.54;87.39;99580.72;5005828;28;20619;-75
2022/06/22 02:24:07;;;;;;;5.47;3.30;;;;;;;19.50;87.76;99573.00;5015394;28;20242;-74
2022/06/22 02:27:08;;;;;;;4.47;3.40;;;;;;;19.46;88.20;99571.47;5002242;28;20180;-74
2022/06/22 02:29:40;;;;;;;4.20;3.50;;;;;;;19.44;88.00;99581.22;4997410;28;20868;-75
2022/06/22 02:32:10;;;;;;;6.57;3.40;;;;;;;19.44;87.51;99589.09;4999232;28;20194;-75
2022/06/22 02:34:38;;;;;;;4.53;3.40;;;;;;;19.40;87.44;99598.09;5006408;28;20179;-75
2022/06/22 02:37:07;;;;;;;5.23;3.27;;;;;;;19.36;87.38;99596.56;5006441;28;20191;-75
2022/06/22 02:39:38;;;;;;;3.37;3.07;;;;;;;19.33;87.57;99609.84;5010808;28;20183;-75
2022/06/22 02:44:48;;;;;;;3.57;2.80;;;;;;;19.28;88.22;99615.38;5005872;28;20558;-74
2022/06/22 02:47:41;;;;;;;3.40;3.10;;;;;;;19.26;88.23;99632.97;5015911;28;20873;-75
2022/06/22 02:50:25;;;;;;;2.83;2.57;;;;;;;19.23;87.97;99642.78;5004174;28;20199;-74
2022/06/22 02:52:58;;;;;;;3.83;2.70;;;;;;;19.21;87.99;99645.47;5006269;28;20215;-75
2022/06/22 02:55:27;;;;;;;3.20;2.47;;;;;;;19.24;88.89;99641.84;5004450;28;20180;-75
2022/06/22 02:57:52;;;;;;;3.43;3.13;;;;;;;19.25;89.59;99633.88;5002028;28;20231;-74
2022/06/22 03:00:42;;;;;;;3.90;3.07;;;;;;;19.23;89.06;99617.38;5002349;28;20220;-75
2022/06/22 03:03:12;;;;;;;3.87;2.60;;;;;;;19.19;88.33;99600.16;5001887;28;20235;-75
2022/06/22 03:05:39;;;;;;;4.17;3.13;;;;;;;19.21;88.18;99613.16;5004949;28;20184;-75
2022/06/22 03:08:07;;;;;;;4.33;3.10;;;;;;;19.17;87.77;99623.81;4999527;28;20223;-74
2022/06/22 03:10:52;;;;;;;3.03;2.77;;;;;;;19.16;87.08;99632.63;5001053;28;20180;-75
2022/06/22 03:13:24;;;;;;;3.20;3.00;;;;;;;19.14;87.08;99631.03;5003702;28;20212;-76
2022/06/22 03:15:50;;;;;;;3.20;2.90;;;;;;;19.19;87.35;99632.47;5004405;28;20560;-76
2022/06/22 03:18:24;;;;;;;3.40;3.10;;;;;;;19.23;87.57;99634.91;4999928;28;20189;-74
2022/06/22 03:20:55;;;;;;;3.20;2.90;;;;;;;19.28;87.43;99652.09;5001422;28;20185;-76
2022/06/22 03:24:09;;;;;;;3.43;2.80;;;;;;;19.32;87.21;99656.25;5014057;28;20200;-74
2022/06/22 03:26:43;;;;;;;3.10;2.90;;;;;;;19.39;88.82;99654.13;4999512;28;20191;-75
2022/06/22 03:29:14;;;;;;;4.13;2.73;;;;;;;19.46;90.65;99654.63;4993470;28;20234;-74
2022/06/22 03:32:31;;;;;;;5.13;3.20;;;;;;;19.43;90.88;99645.16;5003884;28;20193;-75
2022/06/22 03:35:09;;;;;;;3.50;3.20;;;;;;;19.36;90.58;99641.16;4985914;28;20816;-75
2022/06/22 03:37:49;;;;;;;3.27;2.97;;;;;;;19.31;89.70;99649.31;5004469;28;20213;-75
2022/06/22 03:40:24;;;;;;;3.27;2.93;;;;;;;19.29;87.35;99645.06;5018849;28;20271;-75
2022/06/22 03:42:56;;;;;;;3.03;2.77;;;;;;;19.28;86.84;99646.84;4998729;28;20765;-74
2022/06/22 03:45:31;;;;;;;3.07;2.73;;;;;;;19.30;86.33;99650.22;5003133;28;20727;-75
2022/06/22 03:48:05;;;;;;;4.50;3.10;;;;;;;19.31;86.11;99656.31;5001785;28;20188;-75
2022/06/22 03:50:57;;;;;;;3.47;3.17;;;;;;;19.32;85.96;99658.88;4997083;28;20519;-75
2022/06/22 03:53:36;;;;;;;3.57;2.30;;;;;;;19.32;86.18;99651.00;5005545;28;20297;-74
2022/06/22 03:56:07;;;;;;;4.93;2.83;;;;;;;19.35;86.44;99647.34;5002319;28;20195;-75
2022/06/22 03:58:32;;;;;;;5.87;2.80;;;;;;;19.34;86.21;99648.28;5004753;28;20182;-75
2022/06/22 04:00:59;;;;;;;6.20;2.70;;;;;;;19.36;86.09;99649.03;5022422;28;20189;-75
2022/06/22 04:03:24;;;;;;;7.63;3.97;;;;;;;19.36;85.77;99653.44;5004000;28;20292;-75
2022/06/22 04:05:56;;;;;;;7.70;3.50;;;;;;;19.37;85.83;99657.75;5005163;28;20260;-75
2022/06/22 04:08:26;;;;;;;4.97;2.80;;;;;;;19.38;85.58;99664.69;4995175;28;20179;-75
2022/06/22 04:11:01;;;;;;;7.87;2.83;;;;;;;19.40;85.54;99668.06;5004835;28;20184;-75
2022/06/22 04:13:41;;;;;;;3.93;2.87;;;;;;;19.40;84.88;99674.19;5020441;28;20202;-75
2022/06/22 04:16:38;;;;;;;3.10;2.80;;;;;;;19.40;85.11;99673.31;5013793;28;20180;-75
2022/06/22 04:19:12;;;;;;;2.97;2.43;;;;;;;19.39;84.55;99675.13;5008548;28;20245;-75
2022/06/22 04:21:44;;;;;;;3.63;2.97;;;;;;;19.42;84.54;99682.81;5002841;28;20281;-75
2022/06/22 04:24:30;;;;;;;3.47;2.83;;;;;;;19.48;84.28;99684.25;4997906;28;20736;-75
2022/06/22 04:27:06;;;;;;;2.90;2.60;;;;;;;19.48;84.04;99673.75;5001646;28;20181;-75
2022/06/22 04:29:35;;;;;;;2.47;2.27;;;;;;;19.49;83.93;99665.78;5001869;28;20243;-75
2022/06/22 04:32:13;;;;;;;2.87;2.50;;;;;;;19.54;83.89;99669.94;4997528;28;20186;-75
2022/06/22 04:34:45;;;;;;;2.60;2.40;;;;;;;19.54;84.13;99675.19;5029626;28;20183;-75
2022/06/22 04:37:23;;;;;;;2.67;2.30;;;;;;;19.58;83.99;99672.28;5005292;28;20213;-75
2022/06/22 04:39:54;;;;;;;4.97;2.50;;;;;;;19.60;84.32;99667.81;5001940;28;20243;-76
2022/06/22 04:42:19;;;;;;;3.63;3.00;;;;;;;19.62;84.11;99667.72;5012719;28;20305;-75
2022/06/22 04:44:49;;;;;;;3.40;2.67;;;;;;;19.65;84.33;99678.03;5005015;28;20261;-76
2022/06/22 04:47:27;;;;;;;3.97;2.77;;;;;;;19.70;84.22;99683.88;5005304;28;20275;-76
2022/06/22 04:50:02;;;;;;;3.87;3.00;;;;;;;19.74;83.66;99684.56;5000489;28;20218;-75
2022/06/22 04:52:36;;;;;;;3.60;2.73;;;;;;;19.76;83.22;99670.41;5019847;28;20759;-75
2022/06/22 04:55:04;;;;;;;3.00;2.70;;;;;;;19.79;83.15;99670.22;5003971;28;20186;-74
2022/06/22 04:57:33;;;;;;;3.00;2.23;;;;;;;19.83;82.82;99668.25;5005045;28;20174;-75
2022/06/22 05:00:13;;;;;;;4.17;2.60;;;;;;;19.86;82.80;99668.09;4998981;28;20239;-75
2022/06/22 05:02:42;;;;;;;3.37;2.50;;;;;;;19.91;82.85;99686.22;5017311;28;20259;-75
2022/06/22 05:05:19;;;;;;;2.50;2.30;;;;;;;20.00;82.86;99701.47;5004805;28;20273;-75
2022/06/22 05:08:06;;;;;;;4.40;2.50;;;;;;;20.11;83.40;99706.13;5034843;28;20233;-75
2022/06/22 05:10:49;;;;;;;2.97;2.40;;;;;;;20.23;83.71;99709.78;5015269;28;20197;-74
2022/06/22 05:13:23;;;;;;;2.43;2.23;;;;;;;20.34;84.31;99719.66;5007095;28;21035;-75
2022/06/22 05:15:52;;;;;;;2.53;2.33;;;;;;;20.41;84.54;99727.09;5000936;28;20217;-75
2022/06/22 05:18:23;;;;;;;3.03;2.50;;;;;;;20.49;84.88;99718.75;5001893;28;20237;-76
2022/06/22 05:20:56;;;;;;;3.40;2.47;;;;;;;20.56;84.82;99732.38;5011123;28;20192;-76
2022/06/22 05:23:23;;;;;;;2.20;2.00;;;;;;;20.65;85.23;99733.63;5003138;28;20215;-76
2022/06/22 05:25:52;;;;;;;3.80;2.20;;;;;;;20.74;85.41;99745.38;5028657;28;20184;-74
2022/06/22 05:28:29;;;;;;;2.20;2.00;;;;;;;20.83;85.28;99747.47;5000242;28;20263;-75
2022/06/22 05:31:01;;;;;;;3.17;2.63;;;;;;;20.88;84.96;99740.16;5006641;28;20686;-75
2022/06/22 05:33:27;;;;;;;2.70;2.50;;;;;;;20.91;84.50;99739.09;5007605;28;20685;-74
2022/06/22 05:36:03;;;;;;;2.53;2.27;;;;;;;20.90;83.51;99738.28;5007451;28;20717;-75
2022/06/22 05:38:29;;;;;;;2.63;2.30;;;;;;;20.90;82.78;99743.53;5007941;28;20569;-76
2022/06/22 05:40:56;;;;;;;3.00;2.20;;;;;;;20.92;82.32;99746.06;4999869;28;20184;-75
2022/06/22 05:43:23;;;;;;;2.60;2.40;;;;;;;20.99;81.67;99752.66;5022211;28;20212;-75
2022/06/22 05:45:54;;;;;;;2.40;2.20;;;;;;;21.11;81.42;99749.25;5019096;28;20183;-75
2022/06/22 05:48:23;;;;;;;2.73;2.53;;;;;;;21.25;81.37;99750.19;4998571;28;20641;-74
2022/06/22 05:51:07;;;;;;;2.60;2.27;;;;;;;21.42;81.08;99762.28;5006364;28;20183;-75
2022/06/22 05:54:05;;;;;;;2.37;2.17;;;;;;;21.63;81.02;99760.09;4999777;28;20216;-74
2022/06/22 05:57:07;;;;;;;2.57;2.37;;;;;;;21.74;80.46;99748.91;5021554;28;20184;-74
2022/06/22 05:59:45;;;;;;;3.47;2.93;;;;;;;21.77;79.94;99752.19;5002617;28;20180;-75
2022/06/22 06:02:16;;;;;;;2.37;2.17;;;;;;;21.74;79.77;99751.53;5006146;28;20310;-74
2022/06/22 06:04:42;;;;;;;3.53;2.80;;;;;;;21.74;79.47;99748.91;5007633;28;20180;-74
2022/06/22 06:07:36;;;;;;;2.90;2.70;;;;;;;21.67;79.34;99744.97;4997548;28;20185;-75
2022/06/22 06:10:06;;;;;;;5.43;2.70;;;;;;;21.57;79.62;99747.31;5004638;28;20194;-74
2022/06/22 06:12:38;;;;;;;2.73;2.53;;;;;;;21.51;79.81;99747.69;5008807;28;20675;-75
2022/06/22 06:15:05;;;;;;;5.57;2.77;;;;;;;21.45;80.70;99743.66;5003300;28;20188;-75
2022/06/22 06:17:38;;;;;;;6.27;3.20;;;;;;;21.35;82.17;99748.66;5003802;28;20184;-75
2022/06/22 06:20:06;;;;;;;4.40;2.90;;;;;;;21.22;82.44;99745.97;5005386;28;20374;-74
2022/06/22 06:22:35;;;;;;;4.00;3.17;;;;;;;21.12;83.00;99750.09;5008892;28;20235;-74
2022/06/22 06:28:00;;;;;;;4.47;3.20;;;;;;;20.64;91.90;99731.94;4999392;28;20191;-74
2022/06/22 06:30:44;;;;;;;4.60;3.50;;;;;;;20.38;96.11;99727.28;4998407;28;20240;-75
2022/06/22 06:33:24;;;;;;;4.27;3.10;;;;;;;20.22;91.48;99727.34;5021333;28;20206;-74
2022/06/22 06:35:55;;;;;;;4.67;3.27;;;;;;;20.20;91.77;99720.47;5003321;28;20574;-75
2022/06/22 06:38:37;;;;;;;3.33;3.03;;;;;;;20.25;92.17;99727.16;5002933;28;20184;-76
2022/06/22 06:41:10;;;;;;;5.67;3.53;;;;;;;20.33;91.92;99725.88;5014997;28;20188;-74
2022/06/22 06:44:00;;;;;;;4.67;2.90;;;;;;;20.27;89.78;99715.72;5006432;28;20212;-74
2022/06/22 06:46:39;;;;;;;4.03;3.20;;;;;;;20.31;90.17;99718.09;4995000;28;20184;-74
2022/06/22 06:49:09;;;;;;;3.63;3.33;;;;;;;20.35;90.62;99724.00;5015963;28;20258;-75
2022/06/22 06:51:39;;;;;;;3.60;3.30;;;;;;;20.34;90.42;99717.91;5007594;28;20783;-74
2022/06/22 06:54:19;;;;;;;4.27;3.67;;;;;;;20.25;90.61;99710.53;5019013;28;20959;-74
2022/06/22 06:56:52;;;;;;;5.07;3.30;;;;;;;20.28;91.76;99720.03;5005603;28;20215;-74
2022/06/22 06:59:24;;;;;;;3.43;3.17;;;;;;;20.39;91.96;99725.50;5003189;28;20187;-74
2022/06/22 07:01:49;;;;;;;3.23;2.93;;;;;;;20.55;91.54;99728.06;5002050;28;20187;-74
2022/06/22 07:04:27;;;;;;;5.00;3.40;;;;;;;20.56;90.44;99724.50;5005073;28;20211;-74
2022/06/22 07:07:02;;;;;;;3.90;3.27;;;;;;;20.61;90.04;99732.09;5005466;28;20665;-74
2022/06/22 07:09:36;;;;;;;4.17;3.70;;;;;;;20.67;89.81;99731.75;5004454;28;20248;-75
2022/06/22 07:12:29;;;;;;;3.87;3.13;;;;;;;20.74;90.05;99732.22;5006349;28;20180;-75
2022/06/22 07:14:58;;;;;;;3.97;3.37;;;;;;;20.86;90.88;99731.50;5002071;28;20192;-75
2022/06/22 07:17:24;;;;;;;3.93;3.50;;;;;;;20.91;91.62;99725.97;5000419;28;20190;-74
2022/06/22 07:19:58;;;;;;;4.57;3.70;;;;;;;20.89;91.67;99723.44;5001387;28;20193;-75
2022/06/22 07:22:42;;;;;;;3.83;3.53;;;;;;;20.85;92.23;99727.19;4996486;28;20202;-74
2022/06/22 07:25:18;;;;;;;4.33;3.90;;;;;;;20.81;92.30;99723.03;5004526;28;20830;-74
2022/06/22 07:28:00;;;;;;;5.37;3.57;;;;;;;20.77;91.83;99724.19;5005406;28;20183;-74
2022/06/22 07:30:31;;;;;;;4.37;3.97;;;;;;;20.69;92.21;99725.44;5002339;28;20251;-74
2022/06/22 07:33:12;;;;;;;4.40;3.27;;;;;;;20.69;92.46;99722.81;4997488;28;20274;-74
2022/06/22 07:35:40;;;;;;;3.30;3.00;;;;;;;20.72;92.62;99721.81;5005476;28;20203;-74
2022/06/22 07:38:24;;;;;;;3.77;3.43;;;;;;;20.76;92.95;99714.59;5019135;28;20188;-75
2022/06/22 07:43:35;;;;;;;3.93;3.60;;;;;;;20.91;92.70;99715.44;5004965;28;20230;-74
2022/06/22 07:46:00;;;;;;;3.73;3.43;;;;;;;21.00;92.31;99723.63;5004471;28;20192;-74
2022/06/22 07:48:29;;;;;;;3.30;3.10;;;;;;;21.12;92.06;99732.53;5004231;28;20189;-73
2022/06/22 07:50:57;;;;;;;3.23;3.00;;;;;;;21.31;91.89;99741.94;5003623;28;20188;-74
2022/06/22 07:53:29;;;;;;;3.80;3.50;;;;;;;21.52;91.84;99754.66;5001324;28;20731;-74
2022/06/22 07:56:11;;;;;;;3.03;2.83;;;;;;;21.76;91.81;99766.31;4998001;28;20203;-75
2022/06/22 07:58:36;;;;;;;3.33;3.00;;;;;;;21.95;91.69;99757.19;5000779;28;20192;-74
2022/06/22 08:01:14;;;;;;;3.70;3.40;;;;;;;22.01;90.33;99745.41;5004624;28;20195;-74
2022/06/22 08:03:49;;;;;;;4.03;3.73;;;;;;;22.02;89.98;99745.31;5004472;28;20200;-75
2022/06/22 08:06:21;;;;;;;4.20;3.80;;;;;;;22.11;89.46;99751.78;4998064;28;20188;-76
2022/06/22 08:08:55;;;;;;;4.33;3.80;;;;;;;22.16;89.43;99747.03;5004828;28;20180;-75
2022/06/22 08:11:37;;;;;;;3.97;3.67;;;;;;;22.23;89.31;99737.78;5004486;28;20209;-74
2022/06/22 08:14:31;;;;;;;5.87;4.50;;;;;;;22.23;89.09;99735.16;5004896;28;20204;-74
2022/06/22 08:17:00;;;;;;;8.93;4.70;;;;;;;22.22;89.60;99749.28;5004381;28;20186;-75
2022/06/22 08:19:29;;;;;;;4.43;4.00;;;;;;;22.29;89.41;99752.34;4999533;28;20193;-75
2022/06/22 08:21:59;;;;;;;4.43;3.47;;;;;;;22.35;89.88;99764.25;5018459;28;20184;-74
2022/06/22 08:24:27;;;;;;;4.63;4.23;;;;;;;22.43;89.89;99772.56;5003558;28;20306;-75
2022/06/22 08:26:55;;;;;;;4.00;3.63;;;;;;;22.49;90.18;99769.50;5004083;28;20284;-75
2022/06/22 08:29:23;;;;;;;5.33;3.70;;;;;;;22.53;90.85;99768.34;5016051;28;20279;-75
2022/06/22 08:31:57;;;;;;;3.47;3.20;;;;;;;22.56;91.03;99772.56;5004009;28;20181;-75
2022/06/22 08:34:48;;;;;;;3.40;3.10;;;;;;;22.59;91.45;99767.06;5001479;28;20698;-74
2022/06/22 08:37:31;;;;;;;3.70;3.40;;;;;;;22.60;91.82;99758.22;5016509;28;20622;-75
2022/06/22 08:40:36;;;;;;;3.80;3.50;;;;;;;22.58;91.30;99764.56;5005843;28;20278;-75
2022/06/22 08:43:25;;;;;;;3.97;3.57;;;;;;;22.55;90.75;99764.75;5015266;28;20232;-75
2022/06/22 08:46:08;;;;;;;3.93;3.13;;;;;;;22.54;90.44;99779.72;5007098;28;20223;-75
2022/06/22 08:48:53;;;;;;;4.27;3.57;;;;;;;22.53;89.18;99783.34;5007131;28;20678;-74
2022/06/22 08:51:49;;;;;;;3.70;3.40;;;;;;;22.46;88.68;99776.75;5005113;28;20188;-75
2022/06/22 08:54:33;;;;;;;3.90;3.50;;;;;;;22.34;88.41;99773.97;5007761;28;20226;-75
2022/06/22 08:57:25;;;;;;;5.20;4.00;;;;;;;22.20;87.04;99768.78;5025727;28;20330;-75
2022/06/22 09:00:03;;;;;;;3.90;3.50;;;;;;;22.12;87.76;99760.50;5008923;28;20203;-75
2022/06/22 09:02:41;;;;;;;7.20;3.67;;;;;;;22.00;87.74;99760.38;5009925;28;20983;-75
2022/06/22 09:05:25;;;;;;;5.40;3.80;;;;;;;21.95;88.20;99769.53;5008064;28;20192;-75
2022/06/22 09:07:56;;;;;;;4.47;3.53;;;;;;;21.86;88.21;99769.16;5007565;28;20184;-74
2022/06/22 09:11:00;;;;;;;3.97;3.20;;;;;;;21.78;88.79;99772.28;5006543;28;20645;-75
2022/06/22 09:13:38;;;;;;;4.17;3.27;;;;;;;21.75;89.32;99769.88;5003221;28;20707;-74
2022/06/22 09:16:03;;;;;;;3.80;3.50;;;;;;;21.75;89.87;99769.03;5002959;28;20196;-74
2022/06/22 09:18:59;;;;;;;3.93;3.53;;;;;;;21.74;90.70;99767.34;5007186;28;20673;-74
2022/06/22 09:22:02;;;;;;;3.63;3.10;;;;;;;21.74;91.70;99778.72;5013879;28;20678;-75
2022/06/22 09:24:55;;;;;;;3.80;3.50;;;;;;;21.73;93.02;99782.31;5010470;28;20248;-75
2022/06/22 09:27:35;;;;;;;3.70;3.40;;;;;;;21.69;93.40;99780.78;5006240;28;20188;-76
2022/06/22 09:30:35;;;;;;;3.97;3.30;;;;;;;21.67;94.44;99781.84;5008525;28;20187;-76
2022/06/22 09:33:36;;;;;;;3.60;3.37;;;;;;;21.66;94.91;99783.63;5006714;28;20212;-75
2022/06/22 09:36:13;;;;;;;4.10;3.80;;;;;;;21.68;95.99;99775.63;5007671;28;20199;-75
2022/06/22 09:38:51;;;;;;;3.23;3.00;;;;;;;21.70;96.96;99774.59;5006126;28;20208;-75
2022/06/22 09:41:47;;;;;;;4.20;3.47;;;;;;;21.73;97.00;99784.06;5039471;28;20859;-75
2022/06/22 09:44:21;;;;;;;4.87;4.00;;;;;;;21.69;96.31;99778.16;5013942;28;20207;-75
2022/06/22 09:46:58;;;;;;;5.73;4.00;;;;;;;21.64;96.25;99780.22;5009163;28;20654;-75
2022/06/22 09:49:26;;;;;;;4.93;4.00;;;;;;;21.69;96.36;99788.69;5016507;28;20318;-75
2022/06/22 09:52:29;;;;;;;4.07;3.50;;;;;;;21.88;95.68;99787.53;5010494;28;20215;-76
2022/06/22 09:58:01;;;;;;;5.70;3.67;;;;;;;22.16;94.33;99794.47;5006739;28;20303;-76
2022/06/22 10:00:45;;;;;;;5.23;3.50;;;;;;;22.22;93.63;99793.25;5005773;28;20275;-75
2022/06/22 10:03:35;;;;;;;4.30;3.70;;;;;;;22.28;93.71;99799.91;5005517;28;20598;-76
2022/06/22 10:06:22;;;;;;;3.73;3.30;;;;;;;22.40;93.14;99801.72;5001300;28;20194;-76
2022/06/22 10:09:12;;;;;;;3.20;2.90;;;;;;;22.60;92.71;99799.59;5006166;28;20267;-75
2022/06/22 10:11:45;;;;;;;3.80;3.30;;;;;;;22.72;92.03;99809.31;5012009;28;20660;-76
2022/06/22 10:14:43;;;;;;;3.83;3.53;;;;;;;22.91;91.51;99808.06;5005694;28;20209;-75
2022/06/22 10:17:36;;;;;;;4.47;3.30;;;;;;;23.15;90.80;99802.84;5019646;28;20184;-75
2022/06/22 10:20:14;;;;;;;3.87;3.20;;;;;;;23.42;90.26;99807.19;5006237;28;20188;-76
2022/06/22 10:23:00;;;;;;;3.50;3.20;;;;;;;23.70;89.77;99810.50;5023394;28;20208;-76
2022/06/22 10:25:28;;;;;;;3.50;3.10;;;;;;;23.94;89.10;99807.03;5003961;28;20188;-75
2022/06/22 10:28:31;;;;;;;4.40;4.00;;;;;;;24.07;88.28;99807.84;5011245;28;20196;-74
2022/06/22 10:31:17;;;;;;;4.93;3.80;;;;;;;24.26;87.88;99802.06;5007013;28;20190;-76
2022/06/22 10:34:06;;;;;;;3.90;3.30;;;;;;;24.51;87.74;99803.69;5004382;28;20208;-76
2022/06/22 10:37:18;;;;;;;4.00;3.70;;;;;;;24.69;87.20;99797.16;5004019;28;20196;-76
2022/06/22 10:40:11;;;;;;;4.20;3.90;;;;;;;24.81;87.21;99793.59;5001614;28;20195;-75
2022/06/22 10:46:06;;;;;;;4.70;4.30;;;;;;;24.99;86.64;99788.69;5008088;28;20564;-76
2022/06/22 10:48:50;;;;;;;4.00;3.70;;;;;;;25.04;86.50;99791.81;4999275;28;20714;-76
2022/06/22 10:51:19;;;;;;;4.33;3.93;;;;;;;25.09;86.50;99797.59;5002448;28;20203;-75
2022/06/22 10:53:45;;;;;;;4.67;3.93;;;;;;;25.16;86.81;99799.75;5015348;28;20626;-76
2022/06/22 10:56:25;;;;;;;4.87;4.47;;;;;;;25.23;87.18;99798.31;5006706;28;20194;-76
2022/06/22 10:59:25;;;;;;;5.17;4.07;;;;;;;25.40;87.52;99802.28;5005840;28;20187;-76
2022/06/22 11:02:27;;;;;;;4.53;4.23;;;;;;;25.62;88.10;99806.75;4993716;28;20674;-76
2022/06/22 11:05:27;;;;;;;5.37;4.97;;;;;;;25.82;88.15;99799.84;5013476;28;20182;-76
2022/06/22 11:08:13;;;;;;;5.70;5.20;;;;;;;26.02;88.31;99807.97;5000813;28;20296;-75
2022/06/22 11:10:49;;;;;;;6.10;5.60;;;;;;;26.20;88.48;99807.47;5006883;28;20642;-77
2022/06/22 11:13:26;;;;;;;6.43;5.90;;;;;;;26.38;88.69;99813.91;5021974;28;20269;-75
2022/06/22 11:16:22;;;;;;;7.30;6.60;;;;;;;26.46;88.75;99821.22;5012270;28;20274;-76
2022/06/22 11:19:07;;;;;;;7.63;6.87;;;;;;;26.41;89.58;99813.63;5030127;28;20270;-76
2022/06/22 11:21:45;;;;;;;6.87;6.37;;;;;;;26.25;90.72;99818.53;5009042;28;20580;-75
2022/06/22 11:24:26;;;;;;;7.17;6.63;;;;;;;26.19;91.62;99819.03;5008198;28;20977;-76
2022/06/22 11:33:18;;;;;;;7.80;7.20;;;;;;;26.00;94.31;99818.72;5014806;28;20286;-75
2022/06/22 11:35:49;;;;;;;7.80;7.20;;;;;;;26.03;94.67;99820.28;5005819;28;20179;-76
2022/06/22 11:38:42;;;;;;;7.50;7.00;;;;;;;26.14;94.51;99817.59;4997635;28;20279;-75
2022/06/22 11:41:19;;;;;;;7.40;6.90;;;;;;;26.31;95.01;99813.59;5007645;28;20180;-76
2022/06/22 11:43:55;;;;;;;7.30;6.67;;;;;;;26.51;94.75;99818.19;5002293;28;20211;-76
2022/06/22 11:46:33;;;;;;;7.80;7.27;;;;;;;26.63;94.49;99809.19;5023615;28;20688;-77
2022/06/22 11:49:23;;;;;;;7.37;6.87;;;;;;;26.74;94.19;99817.06;5002235;28;20274;-76
2022/06/22 11:52:13;;;;;;;6.43;6.03;;;;;;;26.80;94.33;99812.25;5022956;28;20188;-75
2022/06/22 11:54:51;;;;;;;7.93;7.17;;;;;;;26.71;94.05;99808.53;5007613;28;20204;-76
2022/06/22 11:57:39;;;;;;;7.30;6.70;;;;;;;26.61;94.36;99811.13;5004212;28;20195;-75
2022/06/22 12:00:25;;;;;;;6.90;6.30;;;;;;;26.55;94.67;99804.53;5010071;28;20855;-77
2022/06/22 12:03:09;;;;;;;6.70;6.20;;;;;;;26.51;95.28;99808.41;5002813;28;20216;-77
2022/06/22 12:06:01;;;;;;;7.50;6.90;;;;;;;26.39;95.03;99804.13;5006143;28;20195;-76
2022/06/22 12:08:59;;;;;;;7.00;6.40;;;;;;;26.37;95.12;99795.44;5005396;28;20283;-75
2022/06/22 12:11:56;;;;;;;6.40;5.90;;;;;;;26.48;94.65;99798.03;4989004;28;20279;-75
2022/06/22 12:17:58;;;;;;;7.13;6.47;;;;;;;26.59;93.08;99784.72;5007062;28;20878;-77
2022/06/22 12:20:47;;;;;;;6.93;6.23;;;;;;;26.65;93.24;99774.53;5001053;28;20198;-75
2022/06/22 12:23:36;;;;;;;7.17;6.57;;;;;;;26.78;92.34;99772.53;5014964;28;20230;-75
2022/06/22 12:26:04;;;;;;;7.70;6.90;;;;;;;26.77;92.42;99760.25;5008356;28;20184;-76
2022/06/22 12:28:56;;;;;;;7.50;6.80;;;;;;;26.60;92.73;99756.38;5004761;28;20200;-76
2022/06/22 12:31:24;;;;;;;9.27;7.37;;;;;;;26.60;92.61;99759.88;5008679;28;20188;-76
2022/06/22 12:34:02;;;;;;;16.17;8.50;;;;;;;26.51;93.61;99765.94;5009434;28;20207;-76
2022/06/22 12:36:38;;;;;;;9.80;8.17;;;;;;;26.25;94.85;99765.47;5004858;28;20233;-76
2022/06/22 12:39:11;;;;;;;9.47;8.30;;;;;;;26.07;95.90;99767.81;5005742;28;20390;-75
2022/06/22 12:42:00;;;;;;;10.23;9.20;;;;;;;25.78;97.34;99779.00;5003820;28;20189;-75
2022/06/22 12:45:03;;;;;;;8.60;7.80;;;;;;;25.53;98.09;99770.41;5007159;28;20224;-76
2022/06/22 12:47:47;;;;;;;10.20;8.47;;;;;;;25.24;98.80;99762.94;5033833;28;20185;-76
2022/06/22 12:50:30;;;;;;;9.67;8.77;;;;;;;25.16;99.01;99763.53;5024719;28;20302;-76